Amherst, Canada
Current Conditions -  °F | °C
As of 5:00 PM on Wednesday 17 Dec 2014 (Local Time) from CYQM Reporting Station
Overcast Overcast  
Wind Chill: 22°   Ceiling: 1400
Heat Index: 30°   Visibility: 15mi
Dew Point: 27°   Wind: 9mph
Humidity: 86%   Direction: 60°ENE
Pressure: 29.9"   Gusts: NA
Location:  45.85°N, 64.27°W
Report Text: CYQM 172100Z 06008KT 15SM OVC014 M01/M03 A2990 RMK SC8 SLP128
Loading
Personal Weather Stations






























Interactive Weather Map New forecast layout! Learn more

10-Day Weather Forecast

Advertisements
Track Severe Weather on mobile